sensor_id;sensor_type;location;lat;lon;timestamp;pressure;altitude;pressure_sealevel;temperature;humidity
81354;BME280;70810;52.038;8.524;2024-02-26T00:02:17;98851.84;;;1.59;90.44
81354;BME280;70810;52.038;8.524;2024-02-26T00:04:46;98857.25;;;1.56;90.39
81354;BME280;70810;52.038;8.524;2024-02-26T00:07:12;98861.69;;;1.55;89.77
81354;BME280;70810;52.038;8.524;2024-02-26T00:09:39;98858.44;;;1.47;90.40
81354;BME280;70810;52.038;8.524;2024-02-26T00:12:06;98848.94;;;1.41;90.50
81354;BME280;70810;52.038;8.524;2024-02-26T00:14:33;98863.28;;;1.59;91.02
81354;BME280;70810;52.038;8.524;2024-02-26T00:17:01;98859.75;;;1.60;90.20
81354;BME280;70810;52.038;8.524;2024-02-26T00:19:28;98858.22;;;1.53;90.68
81354;BME280;70810;52.038;8.524;2024-02-26T00:21:56;98856.06;;;1.39;90.39
81354;BME280;70810;52.038;8.524;2024-02-26T00:24:25;98865.00;;;1.35;90.75
81354;BME280;70810;52.038;8.524;2024-02-26T00:26:53;98860.53;;;1.37;90.44
81354;BME280;70810;52.038;8.524;2024-02-26T00:29:21;98862.91;;;1.45;90.71
81354;BME280;70810;52.038;8.524;2024-02-26T00:31:48;98866.31;;;1.48;90.85
81354;BME280;70810;52.038;8.524;2024-02-26T00:34:17;98861.38;;;1.39;90.64
81354;BME280;70810;52.038;8.524;2024-02-26T00:36:46;98864.38;;;1.54;88.86
81354;BME280;70810;52.038;8.524;2024-02-26T00:39:14;98862.81;;;1.48;88.69
81354;BME280;70810;52.038;8.524;2024-02-26T00:41:43;98853.06;;;1.50;87.72
81354;BME280;70810;52.038;8.524;2024-02-26T00:44:09;98860.13;;;1.49;88.12
81354;BME280;70810;52.038;8.524;2024-02-26T00:46:38;98847.75;;;1.25;88.92
81354;BME280;70810;52.038;8.524;2024-02-26T00:49:05;98857.13;;;1.34;89.87
81354;BME280;70810;52.038;8.524;2024-02-26T00:51:33;98858.91;;;1.33;90.41
81354;BME280;70810;52.038;8.524;2024-02-26T00:54:02;98860.38;;;1.42;90.93
81354;BME280;70810;52.038;8.524;2024-02-26T00:56:31;98858.72;;;1.39;90.60
81354;BME280;70810;52.038;8.524;2024-02-26T00:58:59;98850.91;;;1.36;90.92
81354;BME280;70810;52.038;8.524;2024-02-26T01:01:27;98850.91;;;1.36;90.34
81354;BME280;70810;52.038;8.524;2024-02-26T01:03:56;98842.91;;;1.38;89.88
81354;BME280;70810;52.038;8.524;2024-02-26T01:06:23;98838.88;;;1.27;89.91
81354;BME280;70810;52.038;8.524;2024-02-26T01:08:50;98837.28;;;1.22;90.26
81354;BME280;70810;52.038;8.524;2024-02-26T01:11:17;98836.38;;;1.23;89.91
81354;BME280;70810;52.038;8.524;2024-02-26T01:13:46;98837.28;;;1.22;89.48
81354;BME280;70810;52.038;8.524;2024-02-26T01:16:16;98830.09;;;1.25;89.25
81354;BME280;70810;52.038;8.524;2024-02-26T01:18:44;98833.94;;;1.17;90.37
81354;BME280;70810;52.038;8.524;2024-02-26T01:21:12;98842.59;;;1.20;90.37
81354;BME280;70810;52.038;8.524;2024-02-26T01:23:41;98838.72;;;1.30;90.06
81354;BME280;70810;52.038;8.524;2024-02-26T01:26:09;98844.19;;;1.26;88.93
81354;BME280;70810;52.038;8.524;2024-02-26T01:28:36;98844.16;;;1.27;89.29
81354;BME280;70810;52.038;8.524;2024-02-26T01:31:04;98843.44;;;1.47;87.37
81354;BME280;70810;52.038;8.524;2024-02-26T01:33:33;98844.28;;;1.23;88.55
81354;BME280;70810;52.038;8.524;2024-02-26T01:35:59;98838.41;;;1.15;89.60
81354;BME280;70810;52.038;8.524;2024-02-26T01:38:27;98835.63;;;1.19;91.08
81354;BME280;70810;52.038;8.524;2024-02-26T01:40:54;98830.56;;;1.38;89.70
81354;BME280;70810;52.038;8.524;2024-02-26T01:43:21;98824.72;;;1.28;90.02
81354;BME280;70810;52.038;8.524;2024-02-26T01:45:49;98824.13;;;1.20;89.61
81354;BME280;70810;52.038;8.524;2024-02-26T01:48:18;98828.16;;;1.05;90.42
81354;BME280;70810;52.038;8.524;2024-02-26T01:50:46;98820.88;;;1.12;90.69
81354;BME280;70810;52.038;8.524;2024-02-26T01:53:13;98807.84;;;1.07;91.06
81354;BME280;70810;52.038;8.524;2024-02-26T01:55:41;98809.25;;;1.18;90.73
81354;BME280;70810;52.038;8.524;2024-02-26T01:58:10;98805.91;;;1.13;90.96
81354;BME280;70810;52.038;8.524;2024-02-26T02:00:40;98808.28;;;1.20;90.84
81354;BME280;70810;52.038;8.524;2024-02-26T02:03:13;98801.38;;;1.16;91.34
81354;BME280;70810;52.038;8.524;2024-02-26T02:05:42;98805.84;;;1.14;91.85
81354;BME280;70810;52.038;8.524;2024-02-26T02:08:10;98804.56;;;1.26;91.37
81354;BME280;70810;52.038;8.524;2024-02-26T02:10:38;98815.75;;;1.34;90.79
81354;BME280;70810;52.038;8.524;2024-02-26T02:13:09;98822.03;;;1.30;91.13
81354;BME280;70810;52.038;8.524;2024-02-26T02:15:37;98823.72;;;1.33;91.59
81354;BME280;70810;52.038;8.524;2024-02-26T02:18:04;98828.03;;;1.35;91.42
81354;BME280;70810;52.038;8.524;2024-02-26T02:20:42;98829.56;;;1.41;92.41
81354;BME280;70810;52.038;8.524;2024-02-26T02:23:13;98831.16;;;1.46;92.26
81354;BME280;70810;52.038;8.524;2024-02-26T02:25:41;98822.72;;;1.35;91.67
81354;BME280;70810;52.038;8.524;2024-02-26T02:28:08;98827.16;;;1.35;91.55
81354;BME280;70810;52.038;8.524;2024-02-26T02:30:36;98826.88;;;1.42;91.48
81354;BME280;70810;52.038;8.524;2024-02-26T02:33:04;98833.06;;;1.43;90.79
81354;BME280;70810;52.038;8.524;2024-02-26T02:35:31;98831.22;;;1.45;90.88
81354;BME280;70810;52.038;8.524;2024-02-26T02:38:01;98840.75;;;1.49;90.33
81354;BME280;70810;52.038;8.524;2024-02-26T02:40:29;98836.16;;;1.54;91.02
81354;BME280;70810;52.038;8.524;2024-02-26T02:43:00;98849.00;;;1.65;91.40
81354;BME280;70810;52.038;8.524;2024-02-26T02:45:27;98824.06;;;1.72;90.80
81354;BME280;70810;52.038;8.524;2024-02-26T02:47:57;98836.53;;;1.68;90.10
81354;BME280;70810;52.038;8.524;2024-02-26T02:50:24;98835.41;;;1.76;89.80
81354;BME280;70810;52.038;8.524;2024-02-26T02:52:51;98837.13;;;1.77;89.68
81354;BME280;70810;52.038;8.524;2024-02-26T02:55:24;98835.59;;;1.70;89.01
81354;BME280;70810;52.038;8.524;2024-02-26T02:58:00;98841.94;;;1.65;89.79
81354;BME280;70810;52.038;8.524;2024-02-26T03:00:27;98838.63;;;1.84;89.31
81354;BME280;70810;52.038;8.524;2024-02-26T03:02:56;98835.13;;;1.83;89.20
81354;BME280;70810;52.038;8.524;2024-02-26T03:05:25;98824.88;;;1.74;89.07
81354;BME280;70810;52.038;8.524;2024-02-26T03:07:54;98849.97;;;2.11;87.62
81354;BME280;70810;52.038;8.524;2024-02-26T03:10:26;98846.41;;;2.12;87.27
81354;BME280;70810;52.038;8.524;2024-02-26T03:13:03;98820.09;;;2.09;87.09
81354;BME280;70810;52.038;8.524;2024-02-26T03:15:30;98854.16;;;2.17;87.15
81354;BME280;70810;52.038;8.524;2024-02-26T03:17:57;98847.31;;;2.11;88.33
81354;BME280;70810;52.038;8.524;2024-02-26T03:20:32;98846.53;;;2.09;88.80
81354;BME280;70810;52.038;8.524;2024-02-26T03:23:03;98853.25;;;2.18;89.37
81354;BME280;70810;52.038;8.524;2024-02-26T03:25:32;98856.44;;;2.28;89.01
81354;BME280;70810;52.038;8.524;2024-02-26T03:27:59;98860.56;;;2.35;88.51
81354;BME280;70810;52.038;8.524;2024-02-26T03:30:26;98867.06;;;2.50;88.86
81354;BME280;70810;52.038;8.524;2024-02-26T03:32:52;98835.91;;;2.56;87.41
81354;BME280;70810;52.038;8.524;2024-02-26T03:35:22;98847.84;;;2.67;87.63
81354;BME280;70810;52.038;8.524;2024-02-26T03:37:49;98847.19;;;2.61;87.25
81354;BME280;70810;52.038;8.524;2024-02-26T03:40:27;98845.13;;;2.46;87.92
81354;BME280;70810;52.038;8.524;2024-02-26T03:42:59;98839.84;;;2.46;87.64
81354;BME280;70810;52.038;8.524;2024-02-26T03:45:27;98850.00;;;2.57;86.91
81354;BME280;70810;52.038;8.524;2024-02-26T03:47:54;98853.00;;;2.70;87.02
81354;BME280;70810;52.038;8.524;2024-02-26T03:50:25;98845.00;;;2.49;86.54
81354;BME280;70810;52.038;8.524;2024-02-26T03:52:53;98847.31;;;2.35;87.92
81354;BME280;70810;52.038;8.524;2024-02-26T03:55:20;98851.28;;;2.47;88.43
81354;BME280;70810;52.038;8.524;2024-02-26T03:57:50;98856.22;;;2.56;88.10
81354;BME280;70810;52.038;8.524;2024-02-26T04:00:32;98853.00;;;2.70;87.21
81354;BME280;70810;52.038;8.524;2024-02-26T04:03:16;98823.25;;;2.41;87.94
81354;BME280;70810;52.038;8.524;2024-02-26T04:05:43;98856.31;;;2.53;88.61
81354;BME280;70810;52.038;8.524;2024-02-26T04:08:11;98850.63;;;2.64;87.68
81354;BME280;70810;52.038;8.524;2024-02-26T04:10:38;98865.03;;;2.78;87.85
81354;BME280;70810;52.038;8.524;2024-02-26T04:13:05;98864.53;;;2.69;88.40
81354;BME280;70810;52.038;8.524;2024-02-26T04:15:33;98853.91;;;2.70;88.90
81354;BME280;70810;52.038;8.524;2024-02-26T04:18:00;98863.94;;;2.84;88.08
81354;BME280;70810;52.038;8.524;2024-02-26T04:20:30;98858.63;;;3.06;86.80
81354;BME280;70810;52.038;8.524;2024-02-26T04:22:59;98870.19;;;3.04;86.81
81354;BME280;70810;52.038;8.524;2024-02-26T04:25:26;98871.41;;;3.17;86.37
81354;BME280;70810;52.038;8.524;2024-02-26T04:27:54;98881.13;;;2.96;86.81
81354;BME280;70810;52.038;8.524;2024-02-26T04:30:20;98868.66;;;2.98;87.74
81354;BME280;70810;52.038;8.524;2024-02-26T04:32:49;98867.94;;;2.94;87.40
81354;BME280;70810;52.038;8.524;2024-02-26T04:35:15;98879.00;;;3.26;86.77
81354;BME280;70810;52.038;8.524;2024-02-26T04:37:42;98888.28;;;3.36;86.14
81354;BME280;70810;52.038;8.524;2024-02-26T04:40:10;98898.84;;;3.16;86.64
81354;BME280;70810;52.038;8.524;2024-02-26T04:42:36;98885.78;;;3.11;87.25
81354;BME280;70810;52.038;8.524;2024-02-26T04:45:04;98885.19;;;3.05;87.66
81354;BME280;70810;52.038;8.524;2024-02-26T04:47:32;98884.94;;;3.11;87.68
81354;BME280;70810;52.038;8.524;2024-02-26T04:50:00;98891.53;;;3.01;87.08
81354;BME280;70810;52.038;8.524;2024-02-26T04:52:27;98898.59;;;3.00;88.07
81354;BME280;70810;52.038;8.524;2024-02-26T04:54:54;98885.19;;;3.05;88.51
81354;BME280;70810;52.038;8.524;2024-02-26T04:57:21;98893.78;;;3.10;87.70
81354;BME280;70810;52.038;8.524;2024-02-26T04:59:48;98889.28;;;3.12;88.29
81354;BME280;70810;52.038;8.524;2024-02-26T05:02:15;98891.81;;;3.15;87.54
81354;BME280;70810;52.038;8.524;2024-02-26T05:04:42;98901.91;;;3.27;87.81
81354;BME280;70810;52.038;8.524;2024-02-26T05:07:10;98901.91;;;3.27;87.43
81354;BME280;70810;52.038;8.524;2024-02-26T05:09:37;98901.56;;;3.14;87.99
81354;BME280;70810;52.038;8.524;2024-02-26T05:12:05;98901.69;;;3.11;88.82
81354;BME280;70810;52.038;8.524;2024-02-26T05:14:32;98897.13;;;3.15;88.40
81354;BME280;70810;52.038;8.524;2024-02-26T05:16:58;98900.00;;;3.31;88.45
81354;BME280;70810;52.038;8.524;2024-02-26T05:19:25;98900.16;;;3.28;87.62
81354;BME280;70810;52.038;8.524;2024-02-26T05:21:52;98890.63;;;3.22;86.62
81354;BME280;70810;52.038;8.524;2024-02-26T05:24:20;98898.63;;;3.43;87.38
81354;BME280;70810;52.038;8.524;2024-02-26T05:26:48;98908.19;;;3.47;87.80
81354;BME280;70810;52.038;8.524;2024-02-26T05:29:15;98912.28;;;3.54;86.75
81354;BME280;70810;52.038;8.524;2024-02-26T05:31:42;98900.78;;;3.55;86.18
81354;BME280;70810;52.038;8.524;2024-02-26T05:34:09;98911.25;;;3.58;86.46
81354;BME280;70810;52.038;8.524;2024-02-26T05:36:36;98903.03;;;3.64;86.07
81354;BME280;70810;52.038;8.524;2024-02-26T05:39:04;98914.41;;;3.66;85.92
81354;BME280;70810;52.038;8.524;2024-02-26T05:41:32;98916.22;;;3.66;86.52
81354;BME280;70810;52.038;8.524;2024-02-26T05:43:59;98910.66;;;3.72;86.86
81354;BME280;70810;52.038;8.524;2024-02-26T05:46:26;98916.94;;;3.69;86.24
81354;BME280;70810;52.038;8.524;2024-02-26T05:48:53;98914.72;;;3.81;86.05
81354;BME280;70810;52.038;8.524;2024-02-26T05:51:20;98914.03;;;3.76;84.91
81354;BME280;70810;52.038;8.524;2024-02-26T05:53:47;98880.66;;;3.49;84.48
81354;BME280;70810;52.038;8.524;2024-02-26T05:56:19;98922.13;;;3.72;84.75
81354;BME280;70810;52.038;8.524;2024-02-26T05:58:47;98924.91;;;3.69;85.64
81354;BME280;70810;52.038;8.524;2024-02-26T06:01:15;98929.97;;;3.76;86.24
81354;BME280;70810;52.038;8.524;2024-02-26T06:03:42;98942.81;;;3.85;85.58
81354;BME280;70810;52.038;8.524;2024-02-26T06:06:10;98944.13;;;3.95;84.14
81354;BME280;70810;52.038;8.524;2024-02-26T06:08:36;98948.19;;;4.04;83.40
81354;BME280;70810;52.038;8.524;2024-02-26T06:11:05;98945.63;;;4.02;83.44
81354;BME280;70810;52.038;8.524;2024-02-26T06:13:32;98944.06;;;3.97;84.44
81354;BME280;70810;52.038;8.524;2024-02-26T06:16:12;98953.06;;;3.94;84.71
81354;BME280;70810;52.038;8.524;2024-02-26T06:18:39;98951.25;;;3.95;84.12
81354;BME280;70810;52.038;8.524;2024-02-26T06:21:09;98955.41;;;4.00;83.55
81354;BME280;70810;52.038;8.524;2024-02-26T06:23:36;98954.97;;;4.11;83.73
81354;BME280;70810;52.038;8.524;2024-02-26T06:26:03;98952.31;;;4.11;82.95
81354;BME280;70810;52.038;8.524;2024-02-26T06:28:30;98956.47;;;4.17;82.00
81354;BME280;70810;52.038;8.524;2024-02-26T06:30:59;98961.53;;;4.23;81.26
81354;BME280;70810;52.038;8.524;2024-02-26T06:33:28;98950.09;;;4.21;81.76
81354;BME280;70810;52.038;8.524;2024-02-26T06:35:55;98961.78;;;4.17;81.78
81354;BME280;70810;52.038;8.524;2024-02-26T06:38:21;98965.47;;;4.14;80.47
81354;BME280;70810;52.038;8.524;2024-02-26T06:40:48;98967.75;;;4.22;81.17
81354;BME280;70810;52.038;8.524;2024-02-26T06:43:15;98973.91;;;4.22;80.47
81354;BME280;70810;52.038;8.524;2024-02-26T06:45:43;98964.56;;;4.14;80.91
81354;BME280;70810;52.038;8.524;2024-02-26T06:48:11;98972.00;;;4.26;80.43
81354;BME280;70810;52.038;8.524;2024-02-26T06:50:39;98968.16;;;4.33;80.26
81354;BME280;70810;52.038;8.524;2024-02-26T06:53:08;98964.84;;;4.28;80.36
81354;BME280;70810;52.038;8.524;2024-02-26T06:55:36;98974.25;;;4.35;80.21
81354;BME280;70810;52.038;8.524;2024-02-26T06:58:07;98969.66;;;4.39;79.45
81354;BME280;70810;52.038;8.524;2024-02-26T07:04:03;98959.69;;;4.44;80.98
81354;BME280;70810;52.038;8.524;2024-02-26T07:06:53;98975.50;;;4.47;80.31
81354;BME280;70810;52.038;8.524;2024-02-26T07:09:20;98964.03;;;4.46;78.77
81354;BME280;70810;52.038;8.524;2024-02-26T07:11:47;98965.28;;;4.38;79.01
81354;BME280;70810;52.038;8.524;2024-02-26T07:14:14;98965.16;;;4.41;78.34
81354;BME280;70810;52.038;8.524;2024-02-26T07:16:41;98956.06;;;4.26;78.51
81354;BME280;70810;52.038;8.524;2024-02-26T07:19:11;98964.84;;;4.28;78.85
81354;BME280;70810;52.038;8.524;2024-02-26T07:21:38;98947.31;;;4.24;78.57
81354;BME280;70810;52.038;8.524;2024-02-26T07:24:07;98959.53;;;4.28;78.25
81354;BME280;70810;52.038;8.524;2024-02-26T07:26:34;98966.03;;;4.21;79.01
81354;BME280;70810;52.038;8.524;2024-02-26T07:29:01;98966.19;;;4.18;78.64
81354;BME280;70810;52.038;8.524;2024-02-26T07:31:30;98945.63;;;4.02;78.18
81354;BME280;70810;52.038;8.524;2024-02-26T07:33:57;98963.66;;;4.15;78.22
81354;BME280;70810;52.038;8.524;2024-02-26T07:36:23;98966.25;;;4.16;78.94
81354;BME280;70810;52.038;8.524;2024-02-26T07:38:50;98964.38;;;4.18;78.35
81354;BME280;70810;52.038;8.524;2024-02-26T07:41:20;98965.22;;;4.19;78.19
81354;BME280;70810;52.038;8.524;2024-02-26T07:43:47;98964.84;;;4.28;78.29
81354;BME280;70810;52.038;8.524;2024-02-26T07:46:14;98969.00;;;4.34;77.86
81354;BME280;70810;52.038;8.524;2024-02-26T07:48:42;98965.28;;;4.38;78.90
81354;BME280;70810;52.038;8.524;2024-02-26T07:51:12;98978.28;;;4.44;77.53
81354;BME280;70810;52.038;8.524;2024-02-26T07:53:40;98964.69;;;4.52;78.19
81354;BME280;70810;52.038;8.524;2024-02-26T07:56:08;98965.41;;;4.55;77.69
81354;BME280;70810;52.038;8.524;2024-02-26T07:58:36;98966.31;;;4.54;77.69
81354;BME280;70810;52.038;8.524;2024-02-26T08:01:03;98936.16;;;4.36;77.30
81354;BME280;70810;52.038;8.524;2024-02-26T08:03:31;98966.53;;;4.49;77.41
81354;BME280;70810;52.038;8.524;2024-02-26T08:05:59;98986.00;;;4.69;78.60
81354;BME280;70810;52.038;8.524;2024-02-26T08:08:26;98982.22;;;4.75;76.83
81354;BME280;70810;52.038;8.524;2024-02-26T08:10:56;98996.44;;;4.74;77.51
81354;BME280;70810;52.038;8.524;2024-02-26T08:13:22;98996.38;;;4.75;76.81
81354;BME280;70810;52.038;8.524;2024-02-26T08:15:52;98991.47;;;4.85;77.15
81354;BME280;70810;52.038;8.524;2024-02-26T08:18:19;98996.66;;;4.88;76.42
81354;BME280;70810;52.038;8.524;2024-02-26T08:20:49;99012.84;;;5.02;76.56
81354;BME280;70810;52.038;8.524;2024-02-26T08:23:28;99009.88;;;5.09;76.88
81354;BME280;70810;52.038;8.524;2024-02-26T08:26:05;99004.28;;;5.15;76.03
81354;BME280;70810;52.038;8.524;2024-02-26T08:28:36;99012.69;;;5.25;75.77
81354;BME280;70810;52.038;8.524;2024-02-26T08:31:06;99016.63;;;5.35;76.15
81354;BME280;70810;52.038;8.524;2024-02-26T08:33:33;99017.50;;;5.35;75.92
81354;BME280;70810;52.038;8.524;2024-02-26T08:36:04;99016.97;;;5.46;75.59
81354;BME280;70810;52.038;8.524;2024-02-26T08:38:31;99021.16;;;5.52;75.56
81354;BME280;70810;52.038;8.524;2024-02-26T08:41:08;99023.97;;;5.66;74.38
81354;BME280;70810;52.038;8.524;2024-02-26T08:43:36;99033.00;;;5.81;74.31
81354;BME280;70810;52.038;8.524;2024-02-26T08:46:04;99031.47;;;5.94;73.66
81354;BME280;70810;52.038;8.524;2024-02-26T08:48:40;99032.53;;;5.90;73.42
81354;BME280;70810;52.038;8.524;2024-02-26T08:51:14;99027.44;;;6.05;72.90
81354;BME280;70810;52.038;8.524;2024-02-26T08:54:10;99032.78;;;6.05;73.21
81354;BME280;70810;52.038;8.524;2024-02-26T08:56:37;99031.66;;;6.09;73.34
81354;BME280;70810;52.038;8.524;2024-02-26T08:59:07;99034.50;;;6.23;72.51
81354;BME280;70810;52.038;8.524;2024-02-26T09:01:38;99044.38;;;6.21;72.41
81354;BME280;70810;52.038;8.524;2024-02-26T09:04:08;99046.47;;;6.14;72.62
81354;BME280;70810;52.038;8.524;2024-02-26T09:06:35;99058.00;;;6.15;72.15
81354;BME280;70810;52.038;8.524;2024-02-26T09:09:02;99050.16;;;6.12;71.98
81354;BME280;70810;52.038;8.524;2024-02-26T09:11:29;99055.47;;;6.29;72.30
81354;BME280;70810;52.038;8.524;2024-02-26T09:13:58;99061.44;;;6.17;72.34
81354;BME280;70810;52.038;8.524;2024-02-26T09:16:26;99055.25;;;6.16;71.91
81354;BME280;70810;52.038;8.524;2024-02-26T09:18:53;99062.59;;;6.11;71.56
81354;BME280;70810;52.038;8.524;2024-02-26T09:21:24;99071.44;;;6.12;71.57
81354;BME280;70810;52.038;8.524;2024-02-26T09:23:52;99069.19;;;6.04;72.56
81354;BME280;70810;52.038;8.524;2024-02-26T09:26:19;99075.72;;;5.97;72.15
81354;BME280;70810;52.038;8.524;2024-02-26T09:28:46;99071.53;;;6.10;72.90
81354;BME280;70810;52.038;8.524;2024-02-26T09:31:15;99076.06;;;6.26;71.69
81354;BME280;70810;52.038;8.524;2024-02-26T09:33:44;99074.81;;;6.33;71.79
81354;BME280;70810;52.038;8.524;2024-02-26T09:36:11;99058.28;;;6.09;71.71
81354;BME280;70810;52.038;8.524;2024-02-26T09:38:39;99075.22;;;6.08;71.53
81354;BME280;70810;52.038;8.524;2024-02-26T09:41:07;99088.13;;;6.15;72.18
81354;BME280;70810;52.038;8.524;2024-02-26T09:43:43;99080.84;;;6.19;71.17
81354;BME280;70810;52.038;8.524;2024-02-26T09:46:12;99088.38;;;6.28;71.75
81354;BME280;70810;52.038;8.524;2024-02-26T09:48:43;99083.22;;;6.25;71.62
81354;BME280;70810;52.038;8.524;2024-02-26T09:51:11;99082.91;;;6.49;70.92
81354;BME280;70810;52.038;8.524;2024-02-26T09:53:42;99085.25;;;6.55;70.42
81354;BME280;70810;52.038;8.524;2024-02-26T09:56:12;99089.81;;;6.70;69.49
81354;BME280;70810;52.038;8.524;2024-02-26T09:58:39;99091.91;;;6.64;70.85
81354;BME280;70810;52.038;8.524;2024-02-26T10:01:11;99088.50;;;6.95;68.68
81354;BME280;70810;52.038;8.524;2024-02-26T10:03:40;99082.16;;;6.98;68.27
81354;BME280;70810;52.038;8.524;2024-02-26T10:06:09;99079.50;;;6.98;68.75
81354;BME280;70810;52.038;8.524;2024-02-26T10:08:36;99085.97;;;7.09;68.53
81354;BME280;70810;52.038;8.524;2024-02-26T10:11:07;99090.28;;;7.28;67.83
81354;BME280;70810;52.038;8.524;2024-02-26T10:13:35;99101.00;;;7.10;67.41
81354;BME280;70810;52.038;8.524;2024-02-26T10:16:03;99108.69;;;7.17;67.00
81354;BME280;70810;52.038;8.524;2024-02-26T10:18:49;99100.47;;;7.37;65.75
81354;BME280;70810;52.038;8.524;2024-02-26T10:21:21;99110.63;;;7.46;65.56
81354;BME280;70810;52.038;8.524;2024-02-26T10:23:54;99098.56;;;7.39;66.30
81354;BME280;70810;52.038;8.524;2024-02-26T10:26:27;99107.25;;;7.43;65.49
81354;BME280;70810;52.038;8.524;2024-02-26T10:29:01;99117.47;;;7.35;65.70
81354;BME280;70810;52.038;8.524;2024-02-26T10:31:43;99104.34;;;7.32;66.60
81354;BME280;70810;52.038;8.524;2024-02-26T10:34:14;99113.91;;;7.52;66.07
81354;BME280;70810;52.038;8.524;2024-02-26T10:36:42;99117.28;;;7.55;66.19
81354;BME280;70810;52.038;8.524;2024-02-26T10:39:14;99118.81;;;7.10;66.89
81354;BME280;70810;52.038;8.524;2024-02-26T10:41:44;99126.50;;;6.99;67.19
81354;BME280;70810;52.038;8.524;2024-02-26T10:44:11;99128.25;;;7.00;67.51
81354;BME280;70810;52.038;8.524;2024-02-26T10:46:46;99130.72;;;7.20;66.80
81354;BME280;70810;52.038;8.524;2024-02-26T10:49:29;99149.25;;;7.06;66.36
81354;BME280;70810;52.038;8.524;2024-02-26T10:52:19;99143.75;;;7.09;66.46
81354;BME280;70810;52.038;8.524;2024-02-26T10:54:53;99145.41;;;7.12;66.24
81354;BME280;70810;52.038;8.524;2024-02-26T10:57:26;99146.69;;;7.04;66.65
81354;BME280;70810;52.038;8.524;2024-02-26T10:59:57;99141.41;;;6.85;67.54
81354;BME280;70810;52.038;8.524;2024-02-26T11:02:25;99155.22;;;6.94;67.41
81354;BME280;70810;52.038;8.524;2024-02-26T11:04:58;99155.44;;;6.89;67.99
81354;BME280;70810;52.038;8.524;2024-02-26T11:07:27;99155.16;;;6.78;68.04
81354;BME280;70810;52.038;8.524;2024-02-26T11:09:56;99167.22;;;6.85;68.00
81354;BME280;70810;52.038;8.524;2024-02-26T11:12:25;99162.19;;;6.79;68.24
81354;BME280;70810;52.038;8.524;2024-02-26T11:14:59;99166.53;;;6.81;67.92
81354;BME280;70810;52.038;8.524;2024-02-26T11:17:29;99159.22;;;6.85;68.81
81354;BME280;70810;52.038;8.524;2024-02-26T11:19:57;99170.22;;;6.96;68.49
81354;BME280;70810;52.038;8.524;2024-02-26T11:22:24;99158.91;;;7.08;68.45
81354;BME280;70810;52.038;8.524;2024-02-26T11:24:56;99157.16;;;7.25;67.60
81354;BME280;70810;52.038;8.524;2024-02-26T11:27:27;99161.31;;;7.13;68.42
81354;BME280;70810;52.038;8.524;2024-02-26T11:29:59;99165.81;;;6.95;69.24
81354;BME280;70810;52.038;8.524;2024-02-26T11:32:28;99174.91;;;7.08;68.22
81354;BME280;70810;52.038;8.524;2024-02-26T11:34:58;99169.59;;;6.91;69.16
81354;BME280;70810;52.038;8.524;2024-02-26T11:37:34;99177.41;;;7.12;68.84
81354;BME280;70810;52.038;8.524;2024-02-26T11:40:19;99176.28;;;7.16;68.74
81354;BME280;70810;52.038;8.524;2024-02-26T11:49:47;99178.56;;;7.23;68.82
81354;BME280;70810;52.038;8.524;2024-02-26T11:52:19;99174.13;;;7.06;69.29
81354;BME280;70810;52.038;8.524;2024-02-26T11:54:48;99172.31;;;7.07;68.78
81354;BME280;70810;52.038;8.524;2024-02-26T11:57:25;99181.97;;;7.09;69.12
81354;BME280;70810;52.038;8.524;2024-02-26T11:59:54;99173.59;;;6.82;69.94
81354;BME280;70810;52.038;8.524;2024-02-26T12:02:42;99179.28;;;6.75;71.45
81354;BME280;70810;52.038;8.524;2024-02-26T12:05:36;99187.91;;;6.97;70.06
81354;BME280;70810;52.038;8.524;2024-02-26T12:08:14;99176.69;;;6.90;69.90
81354;BME280;70810;52.038;8.524;2024-02-26T12:10:46;99182.28;;;6.86;70.18
81354;BME280;70810;52.038;8.524;2024-02-26T12:13:16;99193.56;;;6.91;70.12
81354;BME280;70810;52.038;8.524;2024-02-26T12:15:55;99186.34;;;6.93;70.14
81354;BME280;70810;52.038;8.524;2024-02-26T12:18:24;99198.03;;;7.08;69.26
81354;BME280;70810;52.038;8.524;2024-02-26T12:21:02;99212.84;;;7.14;69.17
81354;BME280;70810;52.038;8.524;2024-02-26T12:23:47;99215.38;;;7.17;69.02
81354;BME280;70810;52.038;8.524;2024-02-26T12:26:15;99215.38;;;7.17;68.83
81354;BME280;70810;52.038;8.524;2024-02-26T12:28:42;99196.63;;;6.83;68.85
81354;BME280;70810;52.038;8.524;2024-02-26T12:31:08;99201.25;;;6.80;69.18
81354;BME280;70810;52.038;8.524;2024-02-26T12:33:38;99214.34;;;6.84;69.63
81354;BME280;70810;52.038;8.524;2024-02-26T12:36:07;99213.03;;;6.93;69.31
81354;BME280;70810;52.038;8.524;2024-02-26T12:38:34;99217.50;;;6.93;68.53
81354;BME280;70810;52.038;8.524;2024-02-26T12:41:02;99219.59;;;6.86;68.56
81354;BME280;70810;52.038;8.524;2024-02-26T12:43:29;99218.13;;;6.98;67.90
81354;BME280;70810;52.038;8.524;2024-02-26T12:45:56;99213.31;;;6.87;68.68
81354;BME280;70810;52.038;8.524;2024-02-26T12:48:23;99217.16;;;6.81;67.93
81354;BME280;70810;52.038;8.524;2024-02-26T12:50:58;99215.50;;;6.79;68.14
81354;BME280;70810;52.038;8.524;2024-02-26T12:53:30;99216.75;;;6.71;68.23
81354;BME280;70810;52.038;8.524;2024-02-26T12:55:58;99219.13;;;6.78;67.39
81354;BME280;70810;52.038;8.524;2024-02-26T12:58:25;99190.19;;;6.70;67.94
81354;BME280;70810;52.038;8.524;2024-02-26T13:00:59;99236.72;;;6.99;67.17
81354;BME280;70810;52.038;8.524;2024-02-26T13:03:27;99237.63;;;6.81;67.21
81354;BME280;70810;52.038;8.524;2024-02-26T13:05:55;99234.34;;;6.76;67.23
81354;BME280;70810;52.038;8.524;2024-02-26T13:08:23;99250.78;;;6.84;67.24
81354;BME280;70810;52.038;8.524;2024-02-26T13:10:51;99238.84;;;6.73;67.09
81354;BME280;70810;52.038;8.524;2024-02-26T13:13:19;99243.13;;;6.95;67.22
81354;BME280;70810;52.038;8.524;2024-02-26T13:15:46;99243.59;;;6.86;67.17
81354;BME280;70810;52.038;8.524;2024-02-26T13:18:14;99244.53;;;7.02;67.10
81354;BME280;70810;52.038;8.524;2024-02-26T13:20:44;99246.72;;;6.94;67.04
81354;BME280;70810;52.038;8.524;2024-02-26T13:23:12;99253.16;;;7.07;66.62
81354;BME280;70810;52.038;8.524;2024-02-26T13:25:39;99248.59;;;6.92;67.49
81354;BME280;70810;52.038;8.524;2024-02-26T13:28:09;99253.38;;;6.85;67.76
81354;BME280;70810;52.038;8.524;2024-02-26T13:30:37;99261.63;;;6.81;67.93
81354;BME280;70810;52.038;8.524;2024-02-26T13:33:12;99269.53;;;6.82;67.93